Terminal Aerodrome Forecast
Issued by NWS

Home | Current Version | Previous Version | Text Only | Print | Product List | Glossary On
Versions: 1 2 3 4 5 6 7 8 9 10 11 12 13 14 15 16 17 18 19 20 21 22 23 24 25 26 27 28
000
FTUS46 KOTX 241723
TAFSFF
TAF
KSFF 241723Z 2418/2518 04002KT P6SM FEW040
     FM242200 22006KT P6SM SCT080 BKN200 PROB30 2503/2507 -TSRA
      BKN080CB
     FM250700 VRB03KT P6SM VCSH SCT080 BKN200
     FM251300 19006KT P6SM BKN200=

USA.gov is the U.S. government's official web portal to all federal, state and local government web resources and services.